sensor_id;sensor_type;location;lat;lon;timestamp;temperature;humidity
15217;DHT22;7711;46.634;14.318;2022-07-29T00:01:35;19.20;99.90
15217;DHT22;7711;46.634;14.318;2022-07-29T00:04:04;19.10;99.90
15217;DHT22;7711;46.634;14.318;2022-07-29T00:06:33;19.20;99.90
15217;DHT22;7711;46.634;14.318;2022-07-29T00:09:02;19.20;99.90
15217;DHT22;7711;46.634;14.318;2022-07-29T00:11:31;19.10;99.90
15217;DHT22;7711;46.634;14.318;2022-07-29T00:14:05;19.10;99.90
15217;DHT22;7711;46.634;14.318;2022-07-29T00:16:40;19.10;99.90
15217;DHT22;7711;46.634;14.318;2022-07-29T00:19:10;19.10;99.90
15217;DHT22;7711;46.634;14.318;2022-07-29T00:21:46;19.10;99.90
15217;DHT22;7711;46.634;14.318;2022-07-29T00:24:13;19.10;99.90
15217;DHT22;7711;46.634;14.318;2022-07-29T00:26:45;19.00;99.90
15217;DHT22;7711;46.634;14.318;2022-07-29T00:29:14;19.00;99.90
15217;DHT22;7711;46.634;14.318;2022-07-29T00:31:41;19.00;99.90
15217;DHT22;7711;46.634;14.318;2022-07-29T00:34:09;19.00;99.90
15217;DHT22;7711;46.634;14.318;2022-07-29T00:36:59;19.00;99.90
15217;DHT22;7711;46.634;14.318;2022-07-29T00:39:27;18.90;99.90
15217;DHT22;7711;46.634;14.318;2022-07-29T00:41:54;18.90;99.90
15217;DHT22;7711;46.634;14.318;2022-07-29T00:44:23;18.90;99.90
15217;DHT22;7711;46.634;14.318;2022-07-29T00:46:53;18.90;99.90
15217;DHT22;7711;46.634;14.318;2022-07-29T00:49:23;18.90;99.90
15217;DHT22;7711;46.634;14.318;2022-07-29T00:51:53;18.80;99.90
15217;DHT22;7711;46.634;14.318;2022-07-29T00:54:22;18.80;99.90
15217;DHT22;7711;46.634;14.318;2022-07-29T00:56:54;18.80;99.90
15217;DHT22;7711;46.634;14.318;2022-07-29T00:59:23;18.70;99.90
15217;DHT22;7711;46.634;14.318;2022-07-29T01:01:54;18.70;99.90
15217;DHT22;7711;46.634;14.318;2022-07-29T01:04:24;18.60;99.90
15217;DHT22;7711;46.634;14.318;2022-07-29T01:06:54;18.60;99.90
15217;DHT22;7711;46.634;14.318;2022-07-29T01:09:21;18.60;99.90
15217;DHT22;7711;46.634;14.318;2022-07-29T01:11:51;18.50;99.90
15217;DHT22;7711;46.634;14.318;2022-07-29T01:14:23;18.50;99.90
15217;DHT22;7711;46.634;14.318;2022-07-29T01:16:59;18.40;99.90
15217;DHT22;7711;46.634;14.318;2022-07-29T01:19:49;18.50;99.90
15217;DHT22;7711;46.634;14.318;2022-07-29T01:22:31;18.40;99.90
15217;DHT22;7711;46.634;14.318;2022-07-29T01:25:20;18.40;99.90
15217;DHT22;7711;46.634;14.318;2022-07-29T01:30:53;18.30;99.90
15217;DHT22;7711;46.634;14.318;2022-07-29T01:33:21;18.30;99.90
15217;DHT22;7711;46.634;14.318;2022-07-29T01:36:13;18.20;99.90
15217;DHT22;7711;46.634;14.318;2022-07-29T01:38:52;18.10;99.90
15217;DHT22;7711;46.634;14.318;2022-07-29T01:41:22;18.10;99.90
15217;DHT22;7711;46.634;14.318;2022-07-29T01:43:54;18.00;99.90
15217;DHT22;7711;46.634;14.318;2022-07-29T01:46:30;18.00;99.90
15217;DHT22;7711;46.634;14.318;2022-07-29T01:49:04;18.10;99.90
15217;DHT22;7711;46.634;14.318;2022-07-29T01:51:38;18.10;99.90
15217;DHT22;7711;46.634;14.318;2022-07-29T01:54:14;18.00;99.90
15217;DHT22;7711;46.634;14.318;2022-07-29T01:56:51;18.10;99.90
15217;DHT22;7711;46.634;14.318;2022-07-29T01:59:21;18.00;99.90
15217;DHT22;7711;46.634;14.318;2022-07-29T02:01:54;18.00;99.90
15217;DHT22;7711;46.634;14.318;2022-07-29T02:04:26;18.00;99.90
15217;DHT22;7711;46.634;14.318;2022-07-29T02:06:58;18.00;99.90
15217;DHT22;7711;46.634;14.318;2022-07-29T02:09:35;18.00;99.90
15217;DHT22;7711;46.634;14.318;2022-07-29T02:12:08;17.90;99.90
15217;DHT22;7711;46.634;14.318;2022-07-29T02:14:49;17.80;99.90
15217;DHT22;7711;46.634;14.318;2022-07-29T02:17:26;17.70;99.90
15217;DHT22;7711;46.634;14.318;2022-07-29T02:19:57;17.70;99.90
15217;DHT22;7711;46.634;14.318;2022-07-29T02:22:28;17.70;99.90
15217;DHT22;7711;46.634;14.318;2022-07-29T02:24:58;17.60;99.90
15217;DHT22;7711;46.634;14.318;2022-07-29T02:27:29;17.60;99.90
15217;DHT22;7711;46.634;14.318;2022-07-29T02:29:59;17.50;99.90
15217;DHT22;7711;46.634;14.318;2022-07-29T02:32:29;17.50;99.90
15217;DHT22;7711;46.634;14.318;2022-07-29T02:35:04;17.40;99.90
15217;DHT22;7711;46.634;14.318;2022-07-29T02:37:33;17.40;99.90
15217;DHT22;7711;46.634;14.318;2022-07-29T02:40:04;17.30;99.90
15217;DHT22;7711;46.634;14.318;2022-07-29T02:42:35;17.30;99.90
15217;DHT22;7711;46.634;14.318;2022-07-29T02:45:06;17.30;99.90
15217;DHT22;7711;46.634;14.318;2022-07-29T02:47:42;17.20;99.90
15217;DHT22;7711;46.634;14.318;2022-07-29T02:50:15;17.10;99.90
15217;DHT22;7711;46.634;14.318;2022-07-29T02:52:53;17.10;99.90
15217;DHT22;7711;46.634;14.318;2022-07-29T02:55:26;17.00;99.90
15217;DHT22;7711;46.634;14.318;2022-07-29T02:58:00;16.90;99.90
15217;DHT22;7711;46.634;14.318;2022-07-29T03:00:30;16.90;99.90
15217;DHT22;7711;46.634;14.318;2022-07-29T03:03:00;16.90;99.90
15217;DHT22;7711;46.634;14.318;2022-07-29T03:05:32;16.80;99.90
15217;DHT22;7711;46.634;14.318;2022-07-29T03:08:02;16.70;99.90
15217;DHT22;7711;46.634;14.318;2022-07-29T03:10:32;16.70;99.90
15217;DHT22;7711;46.634;14.318;2022-07-29T03:13:01;16.80;99.90
15217;DHT22;7711;46.634;14.318;2022-07-29T03:15:31;16.90;99.90
15217;DHT22;7711;46.634;14.318;2022-07-29T03:18:04;16.90;99.90
15217;DHT22;7711;46.634;14.318;2022-07-29T03:20:32;16.80;99.90
15217;DHT22;7711;46.634;14.318;2022-07-29T03:23:02;16.80;99.90
15217;DHT22;7711;46.634;14.318;2022-07-29T03:25:30;16.80;99.90
15217;DHT22;7711;46.634;14.318;2022-07-29T03:27:59;16.80;99.90
15217;DHT22;7711;46.634;14.318;2022-07-29T03:30:28;16.70;99.90
15217;DHT22;7711;46.634;14.318;2022-07-29T03:32:57;16.70;99.90
15217;DHT22;7711;46.634;14.318;2022-07-29T03:35:26;16.70;99.90
15217;DHT22;7711;46.634;14.318;2022-07-29T03:37:56;16.60;99.90
15217;DHT22;7711;46.634;14.318;2022-07-29T03:40:27;16.60;99.90
15217;DHT22;7711;46.634;14.318;2022-07-29T03:42:59;16.60;99.90
15217;DHT22;7711;46.634;14.318;2022-07-29T03:45:30;16.60;99.90
15217;DHT22;7711;46.634;14.318;2022-07-29T03:48:03;16.70;99.90
15217;DHT22;7711;46.634;14.318;2022-07-29T03:50:36;16.70;99.90
15217;DHT22;7711;46.634;14.318;2022-07-29T03:53:08;16.70;99.90
15217;DHT22;7711;46.634;14.318;2022-07-29T03:55:41;16.60;99.90
15217;DHT22;7711;46.634;14.318;2022-07-29T03:58:11;16.60;99.90
15217;DHT22;7711;46.634;14.318;2022-07-29T04:00:42;16.60;99.90
15217;DHT22;7711;46.634;14.318;2022-07-29T04:03:13;16.60;99.90
15217;DHT22;7711;46.634;14.318;2022-07-29T04:05:43;16.60;99.90
15217;DHT22;7711;46.634;14.318;2022-07-29T04:08:16;16.70;99.90
15217;DHT22;7711;46.634;14.318;2022-07-29T04:10:46;16.70;99.90
15217;DHT22;7711;46.634;14.318;2022-07-29T04:13:13;16.80;99.90
15217;DHT22;7711;46.634;14.318;2022-07-29T04:15:42;16.90;99.90
15217;DHT22;7711;46.634;14.318;2022-07-29T04:18:10;16.90;99.90
15217;DHT22;7711;46.634;14.318;2022-07-29T04:20:41;17.00;99.90
15217;DHT22;7711;46.634;14.318;2022-07-29T04:23:08;17.00;99.90
15217;DHT22;7711;46.634;14.318;2022-07-29T04:25:40;17.00;99.90
15217;DHT22;7711;46.634;14.318;2022-07-29T04:28:08;17.10;99.90
15217;DHT22;7711;46.634;14.318;2022-07-29T04:30:36;17.20;99.90
15217;DHT22;7711;46.634;14.318;2022-07-29T04:33:06;17.20;99.90
15217;DHT22;7711;46.634;14.318;2022-07-29T04:35:35;17.20;99.90
15217;DHT22;7711;46.634;14.318;2022-07-29T04:38:05;17.30;99.90
15217;DHT22;7711;46.634;14.318;2022-07-29T04:40:33;17.20;99.90
15217;DHT22;7711;46.634;14.318;2022-07-29T04:43:03;17.20;99.90
15217;DHT22;7711;46.634;14.318;2022-07-29T04:45:32;17.20;99.90
15217;DHT22;7711;46.634;14.318;2022-07-29T04:47:59;17.30;99.90
15217;DHT22;7711;46.634;14.318;2022-07-29T04:50:29;17.40;99.90
15217;DHT22;7711;46.634;14.318;2022-07-29T04:53:01;17.40;99.90
15217;DHT22;7711;46.634;14.318;2022-07-29T04:55:29;17.50;99.90
15217;DHT22;7711;46.634;14.318;2022-07-29T04:57:56;17.60;99.90
15217;DHT22;7711;46.634;14.318;2022-07-29T05:00:25;17.60;99.90
15217;DHT22;7711;46.634;14.318;2022-07-29T05:02:54;17.60;99.90
15217;DHT22;7711;46.634;14.318;2022-07-29T05:05:24;17.80;99.90
15217;DHT22;7711;46.634;14.318;2022-07-29T05:07:53;17.80;99.90
15217;DHT22;7711;46.634;14.318;2022-07-29T05:10:22;17.90;99.90
15217;DHT22;7711;46.634;14.318;2022-07-29T05:12:51;17.90;99.90
15217;DHT22;7711;46.634;14.318;2022-07-29T05:15:21;17.90;99.90
15217;DHT22;7711;46.634;14.318;2022-07-29T05:17:48;18.00;99.90
15217;DHT22;7711;46.634;14.318;2022-07-29T05:20:15;18.10;99.90
15217;DHT22;7711;46.634;14.318;2022-07-29T05:22:46;18.40;99.90
15217;DHT22;7711;46.634;14.318;2022-07-29T05:25:15;18.40;99.90
15217;DHT22;7711;46.634;14.318;2022-07-29T05:27:42;18.40;99.90
15217;DHT22;7711;46.634;14.318;2022-07-29T05:30:13;18.50;99.90
15217;DHT22;7711;46.634;14.318;2022-07-29T05:32:40;18.30;99.90
15217;DHT22;7711;46.634;14.318;2022-07-29T05:35:08;18.50;99.90
15217;DHT22;7711;46.634;14.318;2022-07-29T05:37:35;18.60;99.90
15217;DHT22;7711;46.634;14.318;2022-07-29T05:40:05;18.80;99.90
15217;DHT22;7711;46.634;14.318;2022-07-29T05:42:34;19.00;99.90
15217;DHT22;7711;46.634;14.318;2022-07-29T05:45:02;19.10;99.90
15217;DHT22;7711;46.634;14.318;2022-07-29T05:47:31;19.40;99.90
15217;DHT22;7711;46.634;14.318;2022-07-29T05:50:03;19.50;99.90
15217;DHT22;7711;46.634;14.318;2022-07-29T05:52:33;19.50;99.90
15217;DHT22;7711;46.634;14.318;2022-07-29T05:55:02;19.60;99.90
15217;DHT22;7711;46.634;14.318;2022-07-29T05:57:31;19.60;99.90
15217;DHT22;7711;46.634;14.318;2022-07-29T06:00:01;19.50;99.90
15217;DHT22;7711;46.634;14.318;2022-07-29T06:02:33;19.40;99.90
15217;DHT22;7711;46.634;14.318;2022-07-29T06:05:00;19.60;99.90
15217;DHT22;7711;46.634;14.318;2022-07-29T06:07:28;19.70;99.90
15217;DHT22;7711;46.634;14.318;2022-07-29T06:09:58;19.80;99.90
15217;DHT22;7711;46.634;14.318;2022-07-29T06:12:25;19.90;99.90
15217;DHT22;7711;46.634;14.318;2022-07-29T06:14:54;19.90;99.90
15217;DHT22;7711;46.634;14.318;2022-07-29T06:17:24;19.90;99.90
15217;DHT22;7711;46.634;14.318;2022-07-29T06:19:52;20.00;99.90
15217;DHT22;7711;46.634;14.318;2022-07-29T06:22:21;19.90;99.90
15217;DHT22;7711;46.634;14.318;2022-07-29T06:24:54;19.90;99.90
15217;DHT22;7711;46.634;14.318;2022-07-29T06:27:21;20.00;99.90
15217;DHT22;7711;46.634;14.318;2022-07-29T06:29:48;20.00;99.90
15217;DHT22;7711;46.634;14.318;2022-07-29T06:32:21;19.90;99.90
15217;DHT22;7711;46.634;14.318;2022-07-29T06:34:52;20.00;99.90
15217;DHT22;7711;46.634;14.318;2022-07-29T06:37:24;20.00;99.90
15217;DHT22;7711;46.634;14.318;2022-07-29T06:39:54;20.00;99.90
15217;DHT22;7711;46.634;14.318;2022-07-29T06:42:37;19.80;99.90
15217;DHT22;7711;46.634;14.318;2022-07-29T06:45:04;19.90;99.90
15217;DHT22;7711;46.634;14.318;2022-07-29T06:47:33;20.00;99.90
15217;DHT22;7711;46.634;14.318;2022-07-29T06:50:04;20.30;99.90
15217;DHT22;7711;46.634;14.318;2022-07-29T06:52:33;20.40;99.90
15217;DHT22;7711;46.634;14.318;2022-07-29T06:55:02;20.50;99.90
15217;DHT22;7711;46.634;14.318;2022-07-29T06:57:31;20.70;99.90
15217;DHT22;7711;46.634;14.318;2022-07-29T07:00:01;20.50;99.90
15217;DHT22;7711;46.634;14.318;2022-07-29T07:02:32;20.70;99.90
15217;DHT22;7711;46.634;14.318;2022-07-29T07:05:04;20.70;99.90
15217;DHT22;7711;46.634;14.318;2022-07-29T07:07:33;20.60;99.90
15217;DHT22;7711;46.634;14.318;2022-07-29T07:10:02;20.50;99.90
15217;DHT22;7711;46.634;14.318;2022-07-29T07:12:31;20.60;99.90
15217;DHT22;7711;46.634;14.318;2022-07-29T07:15:02;20.60;99.90
15217;DHT22;7711;46.634;14.318;2022-07-29T07:17:30;20.70;99.90
15217;DHT22;7711;46.634;14.318;2022-07-29T07:19:59;20.70;99.90
15217;DHT22;7711;46.634;14.318;2022-07-29T07:22:28;21.00;99.90
15217;DHT22;7711;46.634;14.318;2022-07-29T07:24:57;20.90;99.90
15217;DHT22;7711;46.634;14.318;2022-07-29T07:27:26;20.90;99.90
15217;DHT22;7711;46.634;14.318;2022-07-29T07:29:53;21.10;99.90
15217;DHT22;7711;46.634;14.318;2022-07-29T07:32:30;20.90;99.90
15217;DHT22;7711;46.634;14.318;2022-07-29T07:34:59;21.00;99.90
15217;DHT22;7711;46.634;14.318;2022-07-29T07:37:28;21.00;99.90
15217;DHT22;7711;46.634;14.318;2022-07-29T07:40:00;21.00;99.90
15217;DHT22;7711;46.634;14.318;2022-07-29T07:42:27;21.20;99.90
15217;DHT22;7711;46.634;14.318;2022-07-29T07:44:57;21.10;99.90
15217;DHT22;7711;46.634;14.318;2022-07-29T07:47:24;21.30;99.90
15217;DHT22;7711;46.634;14.318;2022-07-29T07:49:53;21.50;99.90
15217;DHT22;7711;46.634;14.318;2022-07-29T07:52:22;21.50;99.90
15217;DHT22;7711;46.634;14.318;2022-07-29T07:54:51;21.60;99.90
15217;DHT22;7711;46.634;14.318;2022-07-29T07:57:20;21.90;99.90
15217;DHT22;7711;46.634;14.318;2022-07-29T07:59:52;21.90;99.90
15217;DHT22;7711;46.634;14.318;2022-07-29T08:02:21;21.70;99.90
15217;DHT22;7711;46.634;14.318;2022-07-29T08:04:48;21.70;99.90
15217;DHT22;7711;46.634;14.318;2022-07-29T08:07:15;21.90;99.90
15217;DHT22;7711;46.634;14.318;2022-07-29T08:09:46;21.90;99.90
15217;DHT22;7711;46.634;14.318;2022-07-29T08:12:16;22.00;99.90
15217;DHT22;7711;46.634;14.318;2022-07-29T08:14:43;22.20;99.90
15217;DHT22;7711;46.634;14.318;2022-07-29T08:17:12;22.60;99.90
15217;DHT22;7711;46.634;14.318;2022-07-29T08:19:41;22.30;99.90
15217;DHT22;7711;46.634;14.318;2022-07-29T08:22:11;22.50;99.90
15217;DHT22;7711;46.634;14.318;2022-07-29T08:24:38;22.50;99.90
15217;DHT22;7711;46.634;14.318;2022-07-29T08:27:21;22.80;99.90
15217;DHT22;7711;46.634;14.318;2022-07-29T08:29:50;22.60;99.90
15217;DHT22;7711;46.634;14.318;2022-07-29T08:32:27;22.80;99.90
15217;DHT22;7711;46.634;14.318;2022-07-29T08:34:58;23.00;99.90
15217;DHT22;7711;46.634;14.318;2022-07-29T08:37:28;22.70;99.90
15217;DHT22;7711;46.634;14.318;2022-07-29T08:39:55;22.80;99.90
15217;DHT22;7711;46.634;14.318;2022-07-29T08:42:24;22.70;99.90
15217;DHT22;7711;46.634;14.318;2022-07-29T08:44:55;23.00;99.90
15217;DHT22;7711;46.634;14.318;2022-07-29T08:47:23;22.90;99.90
15217;DHT22;7711;46.634;14.318;2022-07-29T08:49:53;22.90;99.90
15217;DHT22;7711;46.634;14.318;2022-07-29T08:52:25;22.80;99.90
15217;DHT22;7711;46.634;14.318;2022-07-29T08:54:55;22.90;99.90
15217;DHT22;7711;46.634;14.318;2022-07-29T08:57:25;22.70;99.90
15217;DHT22;7711;46.634;14.318;2022-07-29T08:59:57;22.50;99.90
15217;DHT22;7711;46.634;14.318;2022-07-29T09:02:28;22.50;99.90
15217;DHT22;7711;46.634;14.318;2022-07-29T09:04:59;22.50;99.90
15217;DHT22;7711;46.634;14.318;2022-07-29T09:07:28;22.30;99.90
15217;DHT22;7711;46.634;14.318;2022-07-29T09:09:58;22.30;99.90
15217;DHT22;7711;46.634;14.318;2022-07-29T09:12:26;22.30;99.90
15217;DHT22;7711;46.634;14.318;2022-07-29T09:15:01;22.40;99.90
15217;DHT22;7711;46.634;14.318;2022-07-29T09:17:42;22.50;99.90
15217;DHT22;7711;46.634;14.318;2022-07-29T09:20:11;22.60;99.90
15217;DHT22;7711;46.634;14.318;2022-07-29T09:22:39;22.80;99.90
15217;DHT22;7711;46.634;14.318;2022-07-29T09:25:12;22.90;99.90
15217;DHT22;7711;46.634;14.318;2022-07-29T09:27:41;22.90;99.90
15217;DHT22;7711;46.634;14.318;2022-07-29T09:30:17;23.20;99.90
15217;DHT22;7711;46.634;14.318;2022-07-29T09:32:54;23.40;99.90
15217;DHT22;7711;46.634;14.318;2022-07-29T09:35:25;23.50;99.90
15217;DHT22;7711;46.634;14.318;2022-07-29T09:37:53;23.80;99.90
15217;DHT22;7711;46.634;14.318;2022-07-29T09:40:29;24.00;99.90
15217;DHT22;7711;46.634;14.318;2022-07-29T09:42:57;24.60;99.90
15217;DHT22;7711;46.634;14.318;2022-07-29T09:45:35;24.40;99.90
15217;DHT22;7711;46.634;14.318;2022-07-29T09:48:13;24.00;99.90
15217;DHT22;7711;46.634;14.318;2022-07-29T09:50:43;24.40;99.90
15217;DHT22;7711;46.634;14.318;2022-07-29T09:53:11;24.50;99.90
15217;DHT22;7711;46.634;14.318;2022-07-29T09:55:48;24.60;99.90
15217;DHT22;7711;46.634;14.318;2022-07-29T09:58:18;24.30;99.90
15217;DHT22;7711;46.634;14.318;2022-07-29T10:00:51;24.10;99.90
15217;DHT22;7711;46.634;14.318;2022-07-29T10:03:18;24.30;99.90
15217;DHT22;7711;46.634;14.318;2022-07-29T10:06:04;24.30;99.90
15217;DHT22;7711;46.634;14.318;2022-07-29T10:08:34;24.70;99.90
15217;DHT22;7711;46.634;14.318;2022-07-29T10:11:12;24.80;99.90
15217;DHT22;7711;46.634;14.318;2022-07-29T10:13:42;24.80;99.90
15217;DHT22;7711;46.634;14.318;2022-07-29T10:16:12;24.90;99.90
15217;DHT22;7711;46.634;14.318;2022-07-29T10:18:40;25.80;99.90
15217;DHT22;7711;46.634;14.318;2022-07-29T10:21:14;25.40;99.90
15217;DHT22;7711;46.634;14.318;2022-07-29T10:23:44;25.40;99.90
15217;DHT22;7711;46.634;14.318;2022-07-29T10:26:11;25.90;99.90
15217;DHT22;7711;46.634;14.318;2022-07-29T10:28:41;25.90;99.90
15217;DHT22;7711;46.634;14.318;2022-07-29T10:31:19;25.90;99.90
15217;DHT22;7711;46.634;14.318;2022-07-29T10:33:59;26.10;99.90
15217;DHT22;7711;46.634;14.318;2022-07-29T10:36:42;26.70;99.90
15217;DHT22;7711;46.634;14.318;2022-07-29T10:39:29;26.70;99.90
15217;DHT22;7711;46.634;14.318;2022-07-29T10:42:11;27.40;99.90
15217;DHT22;7711;46.634;14.318;2022-07-29T10:44:42;27.70;99.90
15217;DHT22;7711;46.634;14.318;2022-07-29T10:47:24;27.90;99.90
15217;DHT22;7711;46.634;14.318;2022-07-29T10:49:56;28.20;99.90
15217;DHT22;7711;46.634;14.318;2022-07-29T10:52:53;28.60;99.90
15217;DHT22;7711;46.634;14.318;2022-07-29T10:55:35;28.10;99.90
15217;DHT22;7711;46.634;14.318;2022-07-29T10:58:15;27.50;99.90
15217;DHT22;7711;46.634;14.318;2022-07-29T11:00:44;27.20;99.90
15217;DHT22;7711;46.634;14.318;2022-07-29T11:06:14;26.90;99.90
15217;DHT22;7711;46.634;14.318;2022-07-29T11:11:48;26.50;99.90
15217;DHT22;7711;46.634;14.318;2022-07-29T11:14:17;26.90;99.90
15217;DHT22;7711;46.634;14.318;2022-07-29T11:17:03;27.00;99.90
15217;DHT22;7711;46.634;14.318;2022-07-29T11:19:32;27.20;99.90
15217;DHT22;7711;46.634;14.318;2022-07-29T11:22:01;27.40;99.90
15217;DHT22;7711;46.634;14.318;2022-07-29T11:24:34;27.10;99.90
15217;DHT22;7711;46.634;14.318;2022-07-29T11:27:13;27.10;99.90
15217;DHT22;7711;46.634;14.318;2022-07-29T11:29:50;27.10;99.90
15217;DHT22;7711;46.634;14.318;2022-07-29T11:32:19;27.70;99.90
15217;DHT22;7711;46.634;14.318;2022-07-29T11:34:48;28.30;99.90
15217;DHT22;7711;46.634;14.318;2022-07-29T11:37:22;27.80;99.90
15217;DHT22;7711;46.634;14.318;2022-07-29T11:40:14;27.70;99.90
15217;DHT22;7711;46.634;14.318;2022-07-29T11:42:46;28.10;99.90
15217;DHT22;7711;46.634;14.318;2022-07-29T11:45:18;28.70;99.90
15217;DHT22;7711;46.634;14.318;2022-07-29T11:47:51;29.10;99.90
15217;DHT22;7711;46.634;14.318;2022-07-29T11:50:28;27.90;99.90
15217;DHT22;7711;46.634;14.318;2022-07-29T11:52:56;28.00;99.90
15217;DHT22;7711;46.634;14.318;2022-07-29T11:55:25;27.70;99.90
15217;DHT22;7711;46.634;14.318;2022-07-29T11:57:53;27.70;99.90
15217;DHT22;7711;46.634;14.318;2022-07-29T12:00:23;27.80;99.90
15217;DHT22;7711;46.634;14.318;2022-07-29T12:02:52;28.60;99.90
15217;DHT22;7711;46.634;14.318;2022-07-29T12:05:30;28.90;99.90
15217;DHT22;7711;46.634;14.318;2022-07-29T12:08:05;27.70;99.90
15217;DHT22;7711;46.634;14.318;2022-07-29T12:10:33;27.90;99.90
15217;DHT22;7711;46.634;14.318;2022-07-29T12:13:00;27.80;99.90
15217;DHT22;7711;46.634;14.318;2022-07-29T12:15:27;28.80;99.90
15217;DHT22;7711;46.634;14.318;2022-07-29T12:17:55;28.30;99.90
15217;DHT22;7711;46.634;14.318;2022-07-29T12:20:24;28.30;99.90
15217;DHT22;7711;46.634;14.318;2022-07-29T12:22:52;28.30;99.90
15217;DHT22;7711;46.634;14.318;2022-07-29T12:25:21;28.10;99.90
15217;DHT22;7711;46.634;14.318;2022-07-29T12:27:58;27.80;99.90
15217;DHT22;7711;46.634;14.318;2022-07-29T12:30:36;28.00;99.90
15217;DHT22;7711;46.634;14.318;2022-07-29T12:33:13;28.40;99.90
15217;DHT22;7711;46.634;14.318;2022-07-29T12:35:42;28.20;99.90
15217;DHT22;7711;46.634;14.318;2022-07-29T12:38:11;29.20;99.90
15217;DHT22;7711;46.634;14.318;2022-07-29T12:40:39;29.30;99.20
15217;DHT22;7711;46.634;14.318;2022-07-29T12:43:08;28.80;98.40
15217;DHT22;7711;46.634;14.318;2022-07-29T12:45:36;28.80;98.40
15217;DHT22;7711;46.634;14.318;2022-07-29T12:48:04;29.40;99.10
15217;DHT22;7711;46.634;14.318;2022-07-29T12:50:36;30.00;99.90
15217;DHT22;7711;46.634;14.318;2022-07-29T12:53:11;30.30;98.90
15217;DHT22;7711;46.634;14.318;2022-07-29T12:55:40;29.90;98.20
15217;DHT22;7711;46.634;14.318;2022-07-29T12:58:09;29.90;97.20
15217;DHT22;7711;46.634;14.318;2022-07-29T13:00:37;29.50;97.00
15217;DHT22;7711;46.634;14.318;2022-07-29T13:03:04;29.20;96.60
15217;DHT22;7711;46.634;14.318;2022-07-29T13:05:43;29.10;97.10
15217;DHT22;7711;46.634;14.318;2022-07-29T13:08:12;29.50;95.00
15217;DHT22;7711;46.634;14.318;2022-07-29T13:10:41;30.10;94.40
15217;DHT22;7711;46.634;14.318;2022-07-29T13:13:10;29.80;94.10
15217;DHT22;7711;46.634;14.318;2022-07-29T13:15:38;29.40;94.80
15217;DHT22;7711;46.634;14.318;2022-07-29T13:18:26;29.60;93.80
15217;DHT22;7711;46.634;14.318;2022-07-29T13:20:55;30.50;94.10
15217;DHT22;7711;46.634;14.318;2022-07-29T13:23:26;30.20;92.70
15217;DHT22;7711;46.634;14.318;2022-07-29T13:26:05;31.10;93.60
15217;DHT22;7711;46.634;14.318;2022-07-29T13:28:32;31.50;90.00
15217;DHT22;7711;46.634;14.318;2022-07-29T13:30:59;31.00;89.90
15217;DHT22;7711;46.634;14.318;2022-07-29T13:33:27;31.00;90.30
15217;DHT22;7711;46.634;14.318;2022-07-29T13:35:58;31.60;89.10
15217;DHT22;7711;46.634;14.318;2022-07-29T13:38:26;32.10;87.30
15217;DHT22;7711;46.634;14.318;2022-07-29T13:40:56;33.10;87.60
15217;DHT22;7711;46.634;14.318;2022-07-29T13:43:24;34.50;85.30
15217;DHT22;7711;46.634;14.318;2022-07-29T13:45:51;34.10;82.30
15217;DHT22;7711;46.634;14.318;2022-07-29T13:48:18;34.50;79.20
15217;DHT22;7711;46.634;14.318;2022-07-29T13:50:48;34.30;80.10
15217;DHT22;7711;46.634;14.318;2022-07-29T13:53:16;35.40;78.20
15217;DHT22;7711;46.634;14.318;2022-07-29T13:55:45;35.80;76.50
15217;DHT22;7711;46.634;14.318;2022-07-29T13:58:13;35.90;74.50
15217;DHT22;7711;46.634;14.318;2022-07-29T14:00:40;35.70;71.30
15217;DHT22;7711;46.634;14.318;2022-07-29T14:03:09;35.60;70.30
15217;DHT22;7711;46.634;14.318;2022-07-29T14:05:36;35.20;70.30
15217;DHT22;7711;46.634;14.318;2022-07-29T14:08:04;35.10;69.60
15217;DHT22;7711;46.634;14.318;2022-07-29T14:10:32;34.30;67.10
15217;DHT22;7711;46.634;14.318;2022-07-29T14:13:00;34.00;69.00
15217;DHT22;7711;46.634;14.318;2022-07-29T14:15:34;34.20;70.20
15217;DHT22;7711;46.634;14.318;2022-07-29T14:18:03;34.00;72.20
15217;DHT22;7711;46.634;14.318;2022-07-29T14:20:31;34.00;70.90
15217;DHT22;7711;46.634;14.318;2022-07-29T14:23:01;34.50;70.70
15217;DHT22;7711;46.634;14.318;2022-07-29T14:25:30;34.10;69.10
15217;DHT22;7711;46.634;14.318;2022-07-29T14:27:58;34.30;69.70
15217;DHT22;7711;46.634;14.318;2022-07-29T14:30:25;33.90;68.60
15217;DHT22;7711;46.634;14.318;2022-07-29T14:32:53;34.00;68.60
15217;DHT22;7711;46.634;14.318;2022-07-29T14:35:20;34.50;68.60
15217;DHT22;7711;46.634;14.318;2022-07-29T14:37:47;35.10;69.10
15217;DHT22;7711;46.634;14.318;2022-07-29T14:40:14;35.60;66.60
15217;DHT22;7711;46.634;14.318;2022-07-29T14:42:42;35.10;67.20
15217;DHT22;7711;46.634;14.318;2022-07-29T14:45:10;36.30;67.00
15217;DHT22;7711;46.634;14.318;2022-07-29T14:47:38;36.90;65.30
15217;DHT22;7711;46.634;14.318;2022-07-29T14:50:07;36.70;65.90
15217;DHT22;7711;46.634;14.318;2022-07-29T14:52:34;36.70;62.60
15217;DHT22;7711;46.634;14.318;2022-07-29T14:55:05;36.70;61.90
15217;DHT22;7711;46.634;14.318;2022-07-29T14:57:32;37.40;63.10
15217;DHT22;7711;46.634;14.318;2022-07-29T15:00:03;37.70;62.60
15217;DHT22;7711;46.634;14.318;2022-07-29T15:02:31;37.80;61.90
15217;DHT22;7711;46.634;14.318;2022-07-29T15:05:00;38.20;60.80
15217;DHT22;7711;46.634;14.318;2022-07-29T15:07:28;37.60;58.80
15217;DHT22;7711;46.634;14.318;2022-07-29T15:09:57;37.00;59.40
15217;DHT22;7711;46.634;14.318;2022-07-29T15:12:26;36.20;59.60
15217;DHT22;7711;46.634;14.318;2022-07-29T15:14:54;35.50;62.70
15217;DHT22;7711;46.634;14.318;2022-07-29T15:17:22;35.60;61.80
15217;DHT22;7711;46.634;14.318;2022-07-29T15:19:50;35.10;63.40
15217;DHT22;7711;46.634;14.318;2022-07-29T15:22:20;34.20;63.30
15217;DHT22;7711;46.634;14.318;2022-07-29T15:24:51;33.60;63.00
15217;DHT22;7711;46.634;14.318;2022-07-29T15:27:21;33.20;66.20
15217;DHT22;7711;46.634;14.318;2022-07-29T15:29:50;32.30;64.60
15217;DHT22;7711;46.634;14.318;2022-07-29T15:32:17;31.60;67.00
15217;DHT22;7711;46.634;14.318;2022-07-29T15:34:52;31.00;67.90
15217;DHT22;7711;46.634;14.318;2022-07-29T15:37:19;30.60;69.40
15217;DHT22;7711;46.634;14.318;2022-07-29T15:39:48;30.30;69.00
15217;DHT22;7711;46.634;14.318;2022-07-29T15:42:18;29.90;69.30
15217;DHT22;7711;46.634;14.318;2022-07-29T15:44:46;29.70;72.10
15217;DHT22;7711;46.634;14.318;2022-07-29T15:47:14;29.70;72.80
15217;DHT22;7711;46.634;14.318;2022-07-29T15:49:44;29.70;72.80
15217;DHT22;7711;46.634;14.318;2022-07-29T15:52:12;29.70;74.20
15217;DHT22;7711;46.634;14.318;2022-07-29T15:54:41;29.30;73.50
15217;DHT22;7711;46.634;14.318;2022-07-29T15:57:08;29.10;73.40
15217;DHT22;7711;46.634;14.318;2022-07-29T15:59:37;29.20;73.60
15217;DHT22;7711;46.634;14.318;2022-07-29T16:02:05;29.20;73.70